sensor_id;sensor_type;location;lat;lon;timestamp;pressure;altitude;pressure_sealevel;temperature;humidity
58467;BME280;44255;49.244;7.726;2022-10-16T03:32:44;98177.97;;;16.02;100.00
58467;BME280;44255;49.244;7.726;2022-10-16T03:35:09;98176.63;;;16.10;100.00
58467;BME280;44255;49.244;7.726;2022-10-16T03:37:34;98173.16;;;16.07;100.00
58467;BME280;44255;49.244;7.726;2022-10-16T03:40:00;98169.03;;;16.16;100.00
58467;BME280;44255;49.244;7.726;2022-10-16T03:42:26;98165.88;;;16.24;100.00
58467;BME280;44255;49.244;7.726;2022-10-16T03:44:51;98167.97;;;16.19;100.00
58467;BME280;44255;49.244;7.726;2022-10-16T03:47:16;98167.59;;;16.25;100.00
58467;BME280;44255;49.244;7.726;2022-10-16T03:49:45;98170.94;;;16.29;100.00
58467;BME280;44255;49.244;7.726;2022-10-16T03:52:10;98175.84;;;16.22;100.00
58467;BME280;44255;49.244;7.726;2022-10-16T03:54:36;98180.84;;;16.28;100.00
58467;BME280;44255;49.244;7.726;2022-10-16T03:57:01;98182.09;;;16.23;100.00
58467;BME280;44255;49.244;7.726;2022-10-16T03:59:26;98178.81;;;16.32;100.00
58467;BME280;44255;49.244;7.726;2022-10-16T04:01:51;98177.00;;;16.32;100.00
58467;BME280;44255;49.244;7.726;2022-10-16T04:04:17;98177.66;;;16.36;100.00
58467;BME280;44255;49.244;7.726;2022-10-16T04:06:42;98172.19;;;16.09;100.00
58467;BME280;44255;49.244;7.726;2022-10-16T04:09:07;98180.72;;;16.15;100.00
58467;BME280;44255;49.244;7.726;2022-10-16T04:11:32;98180.66;;;16.17;100.00
58467;BME280;44255;49.244;7.726;2022-10-16T04:13:57;98185.41;;;16.26;100.00
58467;BME280;44255;49.244;7.726;2022-10-16T04:16:23;98179.97;;;16.13;100.00
58467;BME280;44255;49.244;7.726;2022-10-16T04:18:48;98180.94;;;16.12;100.00
58467;BME280;44255;49.244;7.726;2022-10-16T04:21:13;98186.28;;;16.12;100.00
58467;BME280;44255;49.244;7.726;2022-10-16T04:23:38;98189.25;;;16.22;100.00
58467;BME280;44255;49.244;7.726;2022-10-16T04:26:04;98190.63;;;16.15;100.00
58467;BME280;44255;49.244;7.726;2022-10-16T04:28:29;98198.19;;;16.08;100.00
58467;BME280;44255;49.244;7.726;2022-10-16T04:30:54;98176.44;;;16.13;100.00
58467;BME280;44255;49.244;7.726;2022-10-16T04:33:20;98172.59;;;16.17;100.00
58467;BME280;44255;49.244;7.726;2022-10-16T04:35:45;98177.88;;;16.18;100.00
58467;BME280;44255;49.244;7.726;2022-10-16T04:38:10;98193.09;;;16.18;100.00
58467;BME280;44255;49.244;7.726;2022-10-16T04:40:35;98186.78;;;16.19;100.00
58467;BME280;44255;49.244;7.726;2022-10-16T04:43:02;98185.34;;;16.28;100.00
58467;BME280;44255;49.244;7.726;2022-10-16T04:45:28;98180.53;;;16.33;100.00
58467;BME280;44255;49.244;7.726;2022-10-16T04:47:57;98178.91;;;16.30;100.00
58467;BME280;44255;49.244;7.726;2022-10-16T04:50:22;98180.53;;;16.33;100.00
58467;BME280;44255;49.244;7.726;2022-10-16T04:52:47;98174.78;;;16.25;100.00
58467;BME280;44255;49.244;7.726;2022-10-16T04:55:12;98180.63;;;16.31;100.00
58467;BME280;44255;49.244;7.726;2022-10-16T04:57:38;98178.25;;;16.27;100.00
58467;BME280;44255;49.244;7.726;2022-10-16T05:00:03;98194.34;;;16.27;100.00
58467;BME280;44255;49.244;7.726;2022-10-16T05:02:29;98209.13;;;16.19;100.00
58467;BME280;44255;49.244;7.726;2022-10-16T05:04:54;98213.06;;;16.28;100.00
58467;BME280;44255;49.244;7.726;2022-10-16T05:07:19;98208.34;;;16.32;100.00
58467;BME280;44255;49.244;7.726;2022-10-16T05:09:44;98214.19;;;16.39;100.00
58467;BME280;44255;49.244;7.726;2022-10-16T05:12:10;98212.84;;;16.02;100.00
58467;BME280;44255;49.244;7.726;2022-10-16T05:14:35;98189.84;;;15.98;100.00
58467;BME280;44255;49.244;7.726;2022-10-16T05:17:00;98190.03;;;16.24;100.00
58467;BME280;44255;49.244;7.726;2022-10-16T05:19:25;98179.88;;;16.29;100.00
58467;BME280;44255;49.244;7.726;2022-10-16T05:21:51;98178.25;;;16.27;100.00
58467;BME280;44255;49.244;7.726;2022-10-16T05:24:16;98178.16;;;16.28;100.00
58467;BME280;44255;49.244;7.726;2022-10-16T05:26:41;98191.94;;;16.37;100.00
58467;BME280;44255;49.244;7.726;2022-10-16T05:29:07;98198.34;;;16.34;100.00
58467;BME280;44255;49.244;7.726;2022-10-16T05:31:32;98201.03;;;16.34;100.00
58467;BME280;44255;49.244;7.726;2022-10-16T05:33:58;98194.34;;;16.27;100.00
58467;BME280;44255;49.244;7.726;2022-10-16T05:36:24;98190.50;;;16.31;100.00
58467;BME280;44255;49.244;7.726;2022-10-16T05:38:50;98201.13;;;16.61;100.00
58467;BME280;44255;49.244;7.726;2022-10-16T05:41:16;98191.06;;;16.92;100.00
58467;BME280;44255;49.244;7.726;2022-10-16T05:43:46;98203.53;;;16.93;100.00
58467;BME280;44255;49.244;7.726;2022-10-16T05:46:11;98202.22;;;17.01;100.00
58467;BME280;44255;49.244;7.726;2022-10-16T05:48:37;98203.22;;;16.98;100.00
58467;BME280;44255;49.244;7.726;2022-10-16T05:51:05;98203.06;;;16.45;100.00
58467;BME280;44255;49.244;7.726;2022-10-16T05:53:33;98204.13;;;16.42;100.00
58467;BME280;44255;49.244;7.726;2022-10-16T05:55:58;98198.28;;;16.35;100.00
58467;BME280;44255;49.244;7.726;2022-10-16T05:58:24;98205.16;;;16.40;100.00
58467;BME280;44255;49.244;7.726;2022-10-16T06:01:05;98214.19;;;16.39;100.00
58467;BME280;44255;49.244;7.726;2022-10-16T06:03:31;98223.69;;;16.30;100.00
58467;BME280;44255;49.244;7.726;2022-10-16T06:05:57;98224.84;;;16.40;100.00
58467;BME280;44255;49.244;7.726;2022-10-16T06:08:22;98223.13;;;16.39;100.00
58467;BME280;44255;49.244;7.726;2022-10-16T06:10:48;98221.47;;;16.37;100.00
58467;BME280;44255;49.244;7.726;2022-10-16T06:13:14;98237.88;;;16.32;100.00
58467;BME280;44255;49.244;7.726;2022-10-16T06:15:41;98223.00;;;16.41;100.00
58467;BME280;44255;49.244;7.726;2022-10-16T06:18:07;98228.56;;;16.38;100.00
58467;BME280;44255;49.244;7.726;2022-10-16T06:20:33;98229.25;;;16.41;100.00
58467;BME280;44255;49.244;7.726;2022-10-16T06:22:58;98242.97;;;16.37;100.00
58467;BME280;44255;49.244;7.726;2022-10-16T06:25:24;98242.88;;;16.38;100.00
58467;BME280;44255;49.244;7.726;2022-10-16T06:27:49;98239.03;;;16.28;100.00
58467;BME280;44255;49.244;7.726;2022-10-16T06:30:14;98244.31;;;16.15;100.00
58467;BME280;44255;49.244;7.726;2022-10-16T06:32:40;98247.25;;;16.10;100.00
58467;BME280;44255;49.244;7.726;2022-10-16T06:35:05;98241.81;;;16.12;100.00
58467;BME280;44255;49.244;7.726;2022-10-16T06:37:30;98243.63;;;16.11;100.00
58467;BME280;44255;49.244;7.726;2022-10-16T06:39:55;98245.44;;;16.25;100.00
58467;BME280;44255;49.244;7.726;2022-10-16T06:42:21;98251.28;;;16.32;100.00
58467;BME280;44255;49.244;7.726;2022-10-16T06:44:46;98262.13;;;16.16;100.00
58467;BME280;44255;49.244;7.726;2022-10-16T06:47:11;98251.59;;;16.13;100.00
58467;BME280;44255;49.244;7.726;2022-10-16T06:49:37;98252.63;;;16.10;100.00
58467;BME280;44255;49.244;7.726;2022-10-16T06:52:02;98258.09;;;16.23;100.00
58467;BME280;44255;49.244;7.726;2022-10-16T06:54:28;98261.94;;;16.19;100.00
58467;BME280;44255;49.244;7.726;2022-10-16T06:56:53;98263.56;;;16.65;100.00
58467;BME280;44255;49.244;7.726;2022-10-16T06:59:21;98270.84;;;16.34;100.00
58467;BME280;44255;49.244;7.726;2022-10-16T07:01:47;98270.56;;;16.39;100.00
58467;BME280;44255;49.244;7.726;2022-10-16T07:04:12;98276.53;;;16.44;100.00
58467;BME280;44255;49.244;7.726;2022-10-16T07:06:38;98282.38;;;16.50;100.00
58467;BME280;44255;49.244;7.726;2022-10-16T07:09:06;98281.22;;;16.69;100.00
58467;BME280;44255;49.244;7.726;2022-10-16T07:11:31;98283.41;;;16.77;100.00
58467;BME280;44255;49.244;7.726;2022-10-16T07:13:56;98291.44;;;16.91;100.00
58467;BME280;44255;49.244;7.726;2022-10-16T07:16:24;98290.50;;;16.92;100.00
58467;BME280;44255;49.244;7.726;2022-10-16T07:18:50;98297.41;;;16.97;100.00
58467;BME280;44255;49.244;7.726;2022-10-16T07:21:19;98293.31;;;17.05;100.00
58467;BME280;44255;49.244;7.726;2022-10-16T07:23:45;98302.19;;;17.20;100.00
58467;BME280;44255;49.244;7.726;2022-10-16T07:26:14;98307.38;;;17.09;100.00
58467;BME280;44255;49.244;7.726;2022-10-16T07:28:39;98307.88;;;17.01;100.00
58467;BME280;44255;49.244;7.726;2022-10-16T07:31:07;98310.56;;;17.01;100.00
58467;BME280;44255;49.244;7.726;2022-10-16T07:33:34;98311.34;;;17.03;100.00
58467;BME280;44255;49.244;7.726;2022-10-16T07:35:59;98318.91;;;17.11;100.00
58467;BME280;44255;49.244;7.726;2022-10-16T07:38:25;98317.59;;;17.04;100.00
58467;BME280;44255;49.244;7.726;2022-10-16T07:41:01;98314.00;;;17.18;100.00
58467;BME280;44255;49.244;7.726;2022-10-16T07:43:27;98314.31;;;17.13;100.00
58467;BME280;44255;49.244;7.726;2022-10-16T07:45:52;98327.34;;;17.19;100.00
58467;BME280;44255;49.244;7.726;2022-10-16T07:48:18;98329.63;;;17.26;100.00
58467;BME280;44255;49.244;7.726;2022-10-16T07:50:44;98342.72;;;17.17;100.00
58467;BME280;44255;49.244;7.726;2022-10-16T07:53:10;98347.19;;;17.31;100.00
58467;BME280;44255;49.244;7.726;2022-10-16T07:55:36;98352.53;;;17.46;100.00
58467;BME280;44255;49.244;7.726;2022-10-16T07:58:01;98350.56;;;17.35;100.00
58467;BME280;44255;49.244;7.726;2022-10-16T08:00:26;98354.81;;;17.52;100.00
58467;BME280;44255;49.244;7.726;2022-10-16T08:02:52;98355.88;;;17.64;100.00
58467;BME280;44255;49.244;7.726;2022-10-16T08:05:17;98353.22;;;17.77;100.00
58467;BME280;44255;49.244;7.726;2022-10-16T08:07:42;98365.91;;;18.02;100.00
58467;BME280;44255;49.244;7.726;2022-10-16T08:10:16;98363.78;;;18.08;100.00
58467;BME280;44255;49.244;7.726;2022-10-16T08:12:41;98363.47;;;18.25;100.00
58467;BME280;44255;49.244;7.726;2022-10-16T08:15:07;98364.69;;;18.34;100.00
58467;BME280;44255;49.244;7.726;2022-10-16T08:17:33;98370.84;;;18.49;100.00
58467;BME280;44255;49.244;7.726;2022-10-16T08:19:58;98379.34;;;18.56;100.00
58467;BME280;44255;49.244;7.726;2022-10-16T08:22:23;98388.84;;;18.48;100.00
58467;BME280;44255;49.244;7.726;2022-10-16T08:24:48;98399.75;;;18.19;100.00
58467;BME280;44255;49.244;7.726;2022-10-16T08:27:13;98407.38;;;18.40;100.00
58467;BME280;44255;49.244;7.726;2022-10-16T08:29:39;98404.38;;;18.58;100.00
58467;BME280;44255;49.244;7.726;2022-10-16T08:32:04;98405.56;;;18.67;100.00
58467;BME280;44255;49.244;7.726;2022-10-16T08:34:29;98402.97;;;18.65;100.00
58467;BME280;44255;49.244;7.726;2022-10-16T08:36:55;98403.31;;;19.12;100.00
58467;BME280;44255;49.244;7.726;2022-10-16T08:39:20;98404.69;;;19.31;100.00
58467;BME280;44255;49.244;7.726;2022-10-16T08:42:10;98400.03;;;19.46;100.00
58467;BME280;44255;49.244;7.726;2022-10-16T08:47:39;98413.09;;;19.76;100.00
58467;BME280;44255;49.244;7.726;2022-10-16T08:50:10;98415.44;;;19.94;100.00
58467;BME280;44255;49.244;7.726;2022-10-16T08:52:40;98423.81;;;20.02;100.00
58467;BME280;44255;49.244;7.726;2022-10-16T08:55:23;98428.69;;;20.22;100.00
58467;BME280;44255;49.244;7.726;2022-10-16T08:57:50;98430.41;;;20.23;98.23
58467;BME280;44255;49.244;7.726;2022-10-16T09:00:16;98424.16;;;19.98;95.83
58467;BME280;44255;49.244;7.726;2022-10-16T09:03:03;98431.16;;;20.00;96.45
58467;BME280;44255;49.244;7.726;2022-10-16T09:05:46;98427.03;;;20.08;95.60
58467;BME280;44255;49.244;7.726;2022-10-16T09:08:27;98435.25;;;20.06;96.59
58467;BME280;44255;49.244;7.726;2022-10-16T09:10:58;98432.44;;;20.08;100.00
58467;BME280;44255;49.244;7.726;2022-10-16T09:16:33;98439.25;;;20.00;100.00
58467;BME280;44255;49.244;7.726;2022-10-16T09:21:44;98444.97;;;20.33;98.83
58467;BME280;44255;49.244;7.726;2022-10-16T09:24:21;98436.72;;;20.35;96.48
58467;BME280;44255;49.244;7.726;2022-10-16T09:26:49;98450.38;;;20.33;97.34
58467;BME280;44255;49.244;7.726;2022-10-16T09:29:16;98450.69;;;20.28;97.62
58467;BME280;44255;49.244;7.726;2022-10-16T09:31:45;98451.78;;;20.01;96.38
58467;BME280;44255;49.244;7.726;2022-10-16T09:34:24;98463.31;;;19.79;94.14
58467;BME280;44255;49.244;7.726;2022-10-16T09:36:52;98453.22;;;19.94;94.87
58467;BME280;44255;49.244;7.726;2022-10-16T09:39:17;98461.84;;;19.99;97.77
58467;BME280;44255;49.244;7.726;2022-10-16T09:41:44;98456.09;;;20.04;100.00
58467;BME280;44255;49.244;7.726;2022-10-16T09:44:20;98460.75;;;20.02;100.00
58467;BME280;44255;49.244;7.726;2022-10-16T09:46:46;98453.88;;;19.98;100.00
58467;BME280;44255;49.244;7.726;2022-10-16T09:49:22;98455.44;;;20.13;100.00
58467;BME280;44255;49.244;7.726;2022-10-16T09:51:48;98451.09;;;20.35;99.57
58467;BME280;44255;49.244;7.726;2022-10-16T09:54:16;98447.53;;;20.35;95.96
58467;BME280;44255;49.244;7.726;2022-10-16T09:56:41;98444.63;;;20.38;95.17
58467;BME280;44255;49.244;7.726;2022-10-16T09:59:18;98443.84;;;20.36;93.84
58467;BME280;44255;49.244;7.726;2022-10-16T10:01:46;98447.06;;;20.41;91.53
58467;BME280;44255;49.244;7.726;2022-10-16T10:04:12;98455.78;;;20.44;93.24
58467;BME280;44255;49.244;7.726;2022-10-16T10:06:46;98466.22;;;20.73;91.96
58467;BME280;44255;49.244;7.726;2022-10-16T10:09:18;98465.72;;;20.68;92.77
58467;BME280;44255;49.244;7.726;2022-10-16T10:11:55;98467.38;;;20.82;95.09
58467;BME280;44255;49.244;7.726;2022-10-16T10:14:23;98469.00;;;20.96;94.81
58467;BME280;44255;49.244;7.726;2022-10-16T10:16:51;98476.28;;;20.36;98.00
58467;BME280;44255;49.244;7.726;2022-10-16T10:19:21;98474.13;;;20.28;97.72
58467;BME280;44255;49.244;7.726;2022-10-16T10:21:48;98474.34;;;20.38;94.17
58467;BME280;44255;49.244;7.726;2022-10-16T10:24:15;98476.28;;;20.36;93.29
58467;BME280;44255;49.244;7.726;2022-10-16T10:27:05;98477.06;;;20.49;90.45
58467;BME280;44255;49.244;7.726;2022-10-16T10:32:50;98481.78;;;20.58;89.76
58467;BME280;44255;49.244;7.726;2022-10-16T10:36:00;98480.78;;;20.84;90.98
58467;BME280;44255;49.244;7.726;2022-10-16T10:41:08;98484.09;;;20.27;88.95
58467;BME280;44255;49.244;7.726;2022-10-16T10:46:42;98485.00;;;20.15;91.71
58467;BME280;44255;49.244;7.726;2022-10-16T10:54:39;98477.25;;;20.95;88.83
58467;BME280;44255;49.244;7.726;2022-10-16T10:57:22;98472.94;;;20.68;87.20
58467;BME280;44255;49.244;7.726;2022-10-16T11:03:06;98482.94;;;20.79;87.33
58467;BME280;44255;49.244;7.726;2022-10-16T11:05:44;98483.03;;;20.66;86.84
58467;BME280;44255;49.244;7.726;2022-10-16T11:11:02;98481.28;;;20.89;86.86
58467;BME280;44255;49.244;7.726;2022-10-16T11:13:33;98487.19;;;20.83;88.84
58467;BME280;44255;49.244;7.726;2022-10-16T11:16:06;98483.44;;;21.08;86.83
58467;BME280;44255;49.244;7.726;2022-10-16T11:18:45;98485.66;;;21.37;83.52
58467;BME280;44255;49.244;7.726;2022-10-16T11:21:16;98485.22;;;20.96;84.67
58467;BME280;44255;49.244;7.726;2022-10-16T11:23:51;98484.88;;;21.01;84.75
58467;BME280;44255;49.244;7.726;2022-10-16T11:26:25;98487.09;;;21.18;83.49
58467;BME280;44255;49.244;7.726;2022-10-16T11:28:53;98485.44;;;21.40;84.24
58467;BME280;44255;49.244;7.726;2022-10-16T11:31:36;98480.50;;;21.45;84.00
58467;BME280;44255;49.244;7.726;2022-10-16T11:34:10;98479.53;;;21.81;83.69
58467;BME280;44255;49.244;7.726;2022-10-16T11:36:46;98470.59;;;22.13;83.63
58467;BME280;44255;49.244;7.726;2022-10-16T11:39:29;98467.06;;;22.34;79.57
58467;BME280;44255;49.244;7.726;2022-10-16T11:42:19;98457.84;;;22.25;81.54
58467;BME280;44255;49.244;7.726;2022-10-16T11:47:55;98449.09;;;21.88;83.48
58467;BME280;44255;49.244;7.726;2022-10-16T11:56:03;98451.84;;;21.66;80.91
58467;BME280;44255;49.244;7.726;2022-10-16T11:58:51;98453.16;;;21.14;81.99
58467;BME280;44255;49.244;7.726;2022-10-16T12:01:27;98458.59;;;21.49;81.20
58467;BME280;44255;49.244;7.726;2022-10-16T12:04:11;98447.47;;;22.30;76.28
58467;BME280;44255;49.244;7.726;2022-10-16T12:07:03;98442.50;;;22.47;76.90
58467;BME280;44255;49.244;7.726;2022-10-16T12:09:31;98433.47;;;22.57;73.60
58467;BME280;44255;49.244;7.726;2022-10-16T12:11:58;98433.75;;;22.10;76.30
58467;BME280;44255;49.244;7.726;2022-10-16T12:17:25;98438.03;;;22.57;74.61
58467;BME280;44255;49.244;7.726;2022-10-16T12:20:00;98435.56;;;23.18;73.56
58467;BME280;44255;49.244;7.726;2022-10-16T12:22:28;98445.19;;;22.79;75.54
58467;BME280;44255;49.244;7.726;2022-10-16T12:24:54;98444.00;;;22.39;77.25
58467;BME280;44255;49.244;7.726;2022-10-16T12:29:55;98447.09;;;22.02;80.10
58467;BME280;44255;49.244;7.726;2022-10-16T12:32:29;98454.63;;;21.87;80.92
58467;BME280;44255;49.244;7.726;2022-10-16T12:34:55;98449.63;;;21.71;81.85
58467;BME280;44255;49.244;7.726;2022-10-16T12:37:25;98460.44;;;21.59;87.22
58467;BME280;44255;49.244;7.726;2022-10-16T12:39:52;98457.59;;;21.50;87.83
58467;BME280;44255;49.244;7.726;2022-10-16T12:42:36;98455.66;;;21.40;87.09
58467;BME280;44255;49.244;7.726;2022-10-16T12:45:21;98457.00;;;21.35;86.25
58467;BME280;44255;49.244;7.726;2022-10-16T12:47:51;98456.63;;;21.28;90.44
58467;BME280;44255;49.244;7.726;2022-10-16T12:50:37;98454.53;;;21.20;92.43
58467;BME280;44255;49.244;7.726;2022-10-16T12:53:17;98466.19;;;21.21;93.52
58467;BME280;44255;49.244;7.726;2022-10-16T12:55:55;98467.31;;;21.18;93.75
58467;BME280;44255;49.244;7.726;2022-10-16T12:58:39;98463.13;;;21.14;94.35
58467;BME280;44255;49.244;7.726;2022-10-16T13:06:39;98470.13;;;20.94;88.18
58467;BME280;44255;49.244;7.726;2022-10-16T13:09:19;98468.69;;;20.77;87.71
58467;BME280;44255;49.244;7.726;2022-10-16T13:11:52;98468.75;;;20.88;87.86
58467;BME280;44255;49.244;7.726;2022-10-16T13:19:42;98464.66;;;20.82;87.98
58467;BME280;44255;49.244;7.726;2022-10-16T13:25:34;98459.19;;;20.71;89.03
58467;BME280;44255;49.244;7.726;2022-10-16T13:28:06;98463.25;;;20.77;89.12
58467;BME280;44255;49.244;7.726;2022-10-16T13:30:40;98462.19;;;20.79;88.65
58467;BME280;44255;49.244;7.726;2022-10-16T13:33:14;98460.31;;;20.68;88.48
58467;BME280;44255;49.244;7.726;2022-10-16T13:35:52;98460.69;;;20.75;88.87
58467;BME280;44255;49.244;7.726;2022-10-16T13:41:05;98442.63;;;20.75;89.15
58467;BME280;44255;49.244;7.726;2022-10-16T13:43:49;98450.31;;;20.82;87.91
58467;BME280;44255;49.244;7.726;2022-10-16T13:46:20;98462.94;;;20.81;87.41
58467;BME280;44255;49.244;7.726;2022-10-16T13:49:02;98467.66;;;20.91;88.10
58467;BME280;44255;49.244;7.726;2022-10-16T13:51:27;98466.66;;;20.92;87.49
58467;BME280;44255;49.244;7.726;2022-10-16T13:53:55;98466.66;;;21.03;86.68
58467;BME280;44255;49.244;7.726;2022-10-16T13:56:22;98469.38;;;21.03;88.99
58467;BME280;44255;49.244;7.726;2022-10-16T13:59:40;98476.75;;;21.01;89.97
58467;BME280;44255;49.244;7.726;2022-10-16T14:02:22;98470.38;;;21.13;89.93
58467;BME280;44255;49.244;7.726;2022-10-16T14:04:50;98472.75;;;21.18;88.26
58467;BME280;44255;49.244;7.726;2022-10-16T14:07:22;98475.94;;;21.23;85.89
58467;BME280;44255;49.244;7.726;2022-10-16T14:09:50;98480.09;;;21.27;88.05
58467;BME280;44255;49.244;7.726;2022-10-16T14:12:15;98472.88;;;21.28;86.58
58467;BME280;44255;49.244;7.726;2022-10-16T14:14:44;98473.59;;;21.30;86.94
58467;BME280;44255;49.244;7.726;2022-10-16T14:17:35;98482.97;;;21.26;86.31
58467;BME280;44255;49.244;7.726;2022-10-16T14:20:00;98480.50;;;21.23;84.90
58467;BME280;44255;49.244;7.726;2022-10-16T14:22:33;98473.38;;;21.67;84.22
58467;BME280;44255;49.244;7.726;2022-10-16T14:25:00;98480.00;;;21.29;83.39
58467;BME280;44255;49.244;7.726;2022-10-16T14:27:35;98481.28;;;20.89;83.61
58467;BME280;44255;49.244;7.726;2022-10-16T14:32:33;98476.22;;;21.66;81.31
58467;BME280;44255;49.244;7.726;2022-10-16T14:34:58;98481.22;;;21.93;79.73
58467;BME280;44255;49.244;7.726;2022-10-16T14:37:29;98470.13;;;22.40;78.34
58467;BME280;44255;49.244;7.726;2022-10-16T14:39:55;98467.03;;;22.78;76.64
58467;BME280;44255;49.244;7.726;2022-10-16T14:42:23;98467.34;;;22.84;75.77
58467;BME280;44255;49.244;7.726;2022-10-16T14:44:50;98462.31;;;22.80;74.98
58467;BME280;44255;49.244;7.726;2022-10-16T14:47:22;98462.38;;;23.11;73.38
58467;BME280;44255;49.244;7.726;2022-10-16T14:49:52;98463.16;;;23.01;72.79
58467;BME280;44255;49.244;7.726;2022-10-16T14:52:19;98462.94;;;22.83;73.79
58467;BME280;44255;49.244;7.726;2022-10-16T14:54:48;98465.56;;;22.41;75.38
58467;BME280;44255;49.244;7.726;2022-10-16T14:57:24;98473.09;;;22.37;74.16
58467;BME280;44255;49.244;7.726;2022-10-16T14:59:51;98467.78;;;22.36;75.21
58467;BME280;44255;49.244;7.726;2022-10-16T15:04:45;98471.22;;;22.38;75.47
58467;BME280;44255;49.244;7.726;2022-10-16T15:07:10;98469.63;;;22.79;74.28
58467;BME280;44255;49.244;7.726;2022-10-16T15:09:35;98477.22;;;22.85;73.06
58467;BME280;44255;49.244;7.726;2022-10-16T15:12:01;98478.16;;;22.96;71.78
58467;BME280;44255;49.244;7.726;2022-10-16T15:14:26;98472.91;;;22.62;74.41
58467;BME280;44255;49.244;7.726;2022-10-16T15:16:51;98470.78;;;22.65;74.76
58467;BME280;44255;49.244;7.726;2022-10-16T15:19:17;98471.03;;;22.62;75.32
58467;BME280;44255;49.244;7.726;2022-10-16T15:21:42;98473.56;;;22.42;74.02
58467;BME280;44255;49.244;7.726;2022-10-16T15:24:12;98473.22;;;22.36;74.81
58467;BME280;44255;49.244;7.726;2022-10-16T15:26:37;98480.66;;;22.22;78.47
58467;BME280;44255;49.244;7.726;2022-10-16T15:29:02;98474.56;;;22.09;79.69
58467;BME280;44255;49.244;7.726;2022-10-16T15:31:28;98478.06;;;21.77;80.18
58467;BME280;44255;49.244;7.726;2022-10-16T15:33:53;98478.53;;;21.59;84.41
58467;BME280;44255;49.244;7.726;2022-10-16T15:36:27;98472.25;;;21.36;86.37
58467;BME280;44255;49.244;7.726;2022-10-16T15:38:53;98483.06;;;21.24;87.52
58467;BME280;44255;49.244;7.726;2022-10-16T15:41:18;98479.34;;;21.14;88.08
58467;BME280;44255;49.244;7.726;2022-10-16T15:43:44;98476.03;;;21.10;88.40
58467;BME280;44255;49.244;7.726;2022-10-16T15:46:17;98476.31;;;21.41;88.08
58467;BME280;44255;49.244;7.726;2022-10-16T15:48:42;98469.41;;;21.14;88.78
58467;BME280;44255;49.244;7.726;2022-10-16T15:51:08;98477.63;;;21.01;89.50
58467;BME280;44255;49.244;7.726;2022-10-16T15:53:34;98482.53;;;20.96;89.99
58467;BME280;44255;49.244;7.726;2022-10-16T15:56:03;98475.41;;;20.71;91.56
58467;BME280;44255;49.244;7.726;2022-10-16T15:58:29;98478.84;;;20.61;92.93
58467;BME280;44255;49.244;7.726;2022-10-16T16:00:59;98475.81;;;20.42;94.08
58467;BME280;44255;49.244;7.726;2022-10-16T16:03:28;98471.34;;;20.29;95.10
58467;BME280;44255;49.244;7.726;2022-10-16T16:05:54;98473.06;;;20.06;96.93
58467;BME280;44255;49.244;7.726;2022-10-16T16:08:19;98472.34;;;19.91;97.80
58467;BME280;44255;49.244;7.726;2022-10-16T16:10:45;98470.00;;;19.73;99.68
58467;BME280;44255;49.244;7.726;2022-10-16T16:13:10;98474.56;;;19.60;100.00
58467;BME280;44255;49.244;7.726;2022-10-16T16:15:39;98470.50;;;19.41;100.00
58467;BME280;44255;49.244;7.726;2022-10-16T16:18:05;98481.84;;;19.21;100.00
58467;BME280;44255;49.244;7.726;2022-10-16T16:20:31;98478.06;;;19.10;100.00
58467;BME280;44255;49.244;7.726;2022-10-16T16:22:56;98480.47;;;19.02;100.00
58467;BME280;44255;49.244;7.726;2022-10-16T16:25:22;98474.00;;;19.17;100.00
58467;BME280;44255;49.244;7.726;2022-10-16T16:27:47;98474.09;;;19.16;100.00
58467;BME280;44255;49.244;7.726;2022-10-16T16:30:12;98475.81;;;19.04;100.00
58467;BME280;44255;49.244;7.726;2022-10-16T16:32:38;98476.94;;;18.87;100.00
58467;BME280;44255;49.244;7.726;2022-10-16T16:35:03;98471.75;;;18.71;100.00
58467;BME280;44255;49.244;7.726;2022-10-16T16:37:29;98472.16;;;18.52;100.00
58467;BME280;44255;49.244;7.726;2022-10-16T16:39:55;98481.63;;;18.44;100.00
58467;BME280;44255;49.244;7.726;2022-10-16T16:42:23;98473.09;;;18.38;100.00
58467;BME280;44255;49.244;7.726;2022-10-16T16:44:50;98485.69;;;18.37;100.00
58467;BME280;44255;49.244;7.726;2022-10-16T16:47:15;98476.28;;;18.30;100.00
58467;BME280;44255;49.244;7.726;2022-10-16T16:49:40;98483.50;;;18.29;100.00
58467;BME280;44255;49.244;7.726;2022-10-16T16:52:06;98489.63;;;18.04;100.00
58467;BME280;44255;49.244;7.726;2022-10-16T16:54:31;98477.16;;;18.03;100.00
58467;BME280;44255;49.244;7.726;2022-10-16T16:56:56;98493.41;;;17.87;100.00
58467;BME280;44255;49.244;7.726;2022-10-16T16:59:22;98493.28;;;17.88;100.00
58467;BME280;44255;49.244;7.726;2022-10-16T17:01:47;98496.19;;;17.85;100.00
58467;BME280;44255;49.244;7.726;2022-10-16T17:04:13;98504.28;;;17.71;100.00
58467;BME280;44255;49.244;7.726;2022-10-16T17:06:40;98513.25;;;17.71;100.00
58467;BME280;44255;49.244;7.726;2022-10-16T17:09:06;98514.00;;;17.44;100.00
58467;BME280;44255;49.244;7.726;2022-10-16T17:11:33;98522.00;;;17.46;100.00
58467;BME280;44255;49.244;7.726;2022-10-16T17:13:59;98524.78;;;17.44;100.00
58467;BME280;44255;49.244;7.726;2022-10-16T17:16:31;98528.63;;;17.40;100.00
58467;BME280;44255;49.244;7.726;2022-10-16T17:19:07;98532.38;;;17.23;100.00
58467;BME280;44255;49.244;7.726;2022-10-16T17:21:33;98531.78;;;17.32;100.00
58467;BME280;44255;49.244;7.726;2022-10-16T17:24:00;98534.84;;;17.12;100.00
58467;BME280;44255;49.244;7.726;2022-10-16T17:26:25;98533.13;;;17.11;100.00
58467;BME280;44255;49.244;7.726;2022-10-16T17:28:53;98527.75;;;17.11;100.00
58467;BME280;44255;49.244;7.726;2022-10-16T17:31:22;98534.94;;;17.10;100.00
58467;BME280;44255;49.244;7.726;2022-10-16T17:33:47;98537.44;;;16.99;100.00
58467;BME280;44255;49.244;7.726;2022-10-16T17:36:13;98532.47;;;16.91;100.00
58467;BME280;44255;49.244;7.726;2022-10-16T17:38:40;98542.63;;;16.86;100.00
58467;BME280;44255;49.244;7.726;2022-10-16T17:41:13;98547.22;;;16.84;100.00